createdAt,value
2019-02-26T00:00:37.016Z,2.70
2019-02-26T00:03:07.266Z,2.70
2019-02-26T00:05:37.618Z,2.70
2019-02-26T00:08:07.873Z,2.60
2019-02-26T00:10:39.138Z,2.60
2019-02-26T00:13:09.517Z,2.60
2019-02-26T00:15:40.497Z,2.60
2019-02-26T00:18:14.039Z,2.70
2019-02-26T00:20:43.705Z,2.70
2019-02-26T00:23:13.846Z,2.70
2019-02-26T00:25:44.120Z,2.70
2019-02-26T00:28:15.883Z,2.70
2019-02-26T00:30:46.302Z,2.60
2019-02-26T00:33:16.978Z,2.60
2019-02-26T00:35:50.167Z,2.60
2019-02-26T00:38:20.527Z,2.50
2019-02-26T00:40:50.861Z,2.50
2019-02-26T00:43:23.710Z,2.50
2019-02-26T00:45:53.344Z,2.50
2019-02-26T00:48:25.039Z,2.50
2019-02-26T00:50:56.584Z,2.50
2019-02-26T00:53:28.432Z,2.50
2019-02-26T00:56:01.124Z,2.60
2019-02-26T00:58:32.066Z,2.50
2019-02-26T01:01:02.864Z,2.50
2019-02-26T01:03:33.069Z,2.60
2019-02-26T01:06:04.120Z,2.60
2019-02-26T01:08:35.826Z,2.50
2019-02-26T01:11:08.309Z,2.50
2019-02-26T01:13:38.755Z,2.50
2019-02-26T01:16:08.963Z,2.50
2019-02-26T01:18:39.279Z,2.30
2019-02-26T01:21:09.420Z,2.30
2019-02-26T01:23:39.670Z,2.30
2019-02-26T01:26:11.862Z,2.30
2019-02-26T01:28:44.095Z,2.20
2019-02-26T01:31:13.858Z,2.20
2019-02-26T01:33:46.249Z,2.10
2019-02-26T01:36:16.928Z,2.10
2019-02-26T01:38:49.174Z,2.10
2019-02-26T01:41:20.992Z,2.10
2019-02-26T01:43:52.037Z,2.10
2019-02-26T01:46:22.383Z,2.20
2019-02-26T01:48:52.969Z,2.20
2019-02-26T01:51:25.988Z,2.20
2019-02-26T01:53:56.310Z,2.20
2019-02-26T01:56:26.494Z,2.10
2019-02-26T01:58:59.447Z,2.10
2019-02-26T02:01:28.544Z,2.10
2019-02-26T02:03:58.795Z,2.10
2019-02-26T02:06:30.344Z,2.10
2019-02-26T02:09:00.988Z,2.10
2019-02-26T02:11:32.988Z,2.10
2019-02-26T02:14:04.213Z,2.10
2019-02-26T02:16:35.117Z,2.10
2019-02-26T02:19:05.369Z,2.00
2019-02-26T02:21:37.392Z,2.00
2019-02-26T02:24:10.790Z,1.90
2019-02-26T02:26:42.946Z,1.90
2019-02-26T02:29:12.858Z,1.90
2019-02-26T02:31:43.382Z,1.90
2019-02-26T02:34:13.665Z,1.90
2019-02-26T02:36:44.046Z,1.80
2019-02-26T02:39:15.637Z,1.80
2019-02-26T02:41:48.757Z,1.80
2019-02-26T02:44:20.366Z,1.90
2019-02-26T02:46:50.072Z,1.90
2019-02-26T02:49:20.435Z,1.80
2019-02-26T02:51:50.682Z,1.80
2019-02-26T02:54:21.710Z,1.80
2019-02-26T02:56:52.844Z,1.70
2019-02-26T02:59:23.039Z,1.60
2019-02-26T03:01:55.354Z,1.60
2019-02-26T03:04:28.268Z,1.60
2019-02-26T03:06:58.645Z,1.60
2019-02-26T03:09:31.118Z,1.70
2019-02-26T03:12:01.228Z,1.70
2019-02-26T03:14:33.822Z,1.70
2019-02-26T03:17:05.659Z,1.70
2019-02-26T03:19:37.602Z,1.70
2019-02-26T03:22:09.617Z,1.70
2019-02-26T03:24:39.264Z,1.60
2019-02-26T03:27:09.462Z,1.60
2019-02-26T03:29:39.666Z,1.60
2019-02-26T03:32:09.819Z,1.60
2019-02-26T03:34:40.048Z,1.60
2019-02-26T03:37:11.045Z,1.60
2019-02-26T03:39:41.574Z,1.60
2019-02-26T03:42:14.115Z,1.60
2019-02-26T03:44:46.256Z,1.60
2019-02-26T03:47:16.331Z,1.60
2019-02-26T03:49:47.514Z,1.50
2019-02-26T03:52:17.706Z,1.50
2019-02-26T03:54:48.662Z,1.50
2019-02-26T03:57:22.072Z,1.40
2019-02-26T03:59:51.827Z,1.40
2019-02-26T04:02:23.501Z,1.40
2019-02-26T04:04:54.407Z,1.30
2019-02-26T04:07:27.849Z,1.30
2019-02-26T04:09:58.547Z,1.30
2019-02-26T04:12:28.966Z,1.30
2019-02-26T04:14:59.155Z,1.30
2019-02-26T04:17:30.756Z,1.30
2019-02-26T04:20:02.632Z,1.40
2019-02-26T04:22:35.159Z,1.40
2019-02-26T04:25:33.357Z,1.40
2019-02-26T04:28:21.595Z,1.40
2019-02-26T04:31:21.959Z,1.50
2019-02-26T04:34:29.271Z,1.50
2019-02-26T04:37:46.398Z,1.40
2019-02-26T04:41:00.415Z,1.50
2019-02-26T04:44:07.419Z,1.50
2019-02-26T04:46:59.574Z,1.40
2019-02-26T04:49:30.860Z,1.40
2019-02-26T04:52:02.976Z,1.30
2019-02-26T04:54:33.734Z,1.30
2019-02-26T04:57:05.389Z,1.30
2019-02-26T04:59:37.906Z,1.30
2019-02-26T05:02:07.643Z,1.30
2019-02-26T05:04:40.030Z,1.20
2019-02-26T05:07:13.198Z,1.20
2019-02-26T05:09:42.247Z,1.20
2019-02-26T05:12:12.523Z,1.20
2019-02-26T05:14:42.773Z,1.20
2019-02-26T05:17:13.087Z,1.20
2019-02-26T05:19:46.007Z,1.20
2019-02-26T05:22:15.185Z,1.10
2019-02-26T05:24:47.506Z,1.20
2019-02-26T05:27:19.740Z,1.10
2019-02-26T05:29:52.516Z,1.10
2019-02-26T05:32:24.099Z,1.00
2019-02-26T05:34:53.530Z,1.00
2019-02-26T05:37:23.802Z,0.80
2019-02-26T05:39:54.587Z,0.80
2019-02-26T05:42:25.217Z,0.90
2019-02-26T05:44:59.073Z,1.00
2019-02-26T05:47:27.567Z,1.00
2019-02-26T05:49:59.606Z,1.10
2019-02-26T05:52:30.688Z,1.10
2019-02-26T05:55:01.700Z,1.10
2019-02-26T05:57:32.712Z,1.20
2019-02-26T06:00:03.159Z,1.20
2019-02-26T06:02:33.459Z,1.20
2019-02-26T06:05:03.823Z,1.30
2019-02-26T06:07:36.794Z,1.30
2019-02-26T06:10:06.372Z,1.30
2019-02-26T06:12:39.723Z,1.30
2019-02-26T06:15:08.708Z,1.30
2019-02-26T06:17:43.064Z,1.30
2019-02-26T06:20:19.654Z,1.30
2019-02-26T06:22:49.952Z,1.30
2019-02-26T06:25:24.074Z,1.30
2019-02-26T06:27:52.021Z,1.30
2019-02-26T06:30:22.351Z,1.30
2019-02-26T06:32:52.578Z,1.30
2019-02-26T06:35:22.748Z,1.30
2019-02-26T06:37:52.940Z,1.30
2019-02-26T06:40:23.193Z,1.30
2019-02-26T06:42:53.408Z,1.30
2019-02-26T06:45:23.632Z,1.30
2019-02-26T06:47:54.613Z,1.30
2019-02-26T06:50:25.814Z,1.30
2019-02-26T06:52:56.130Z,1.20
2019-02-26T06:55:26.434Z,1.30
2019-02-26T06:58:25.364Z,1.30
2019-02-26T07:00:56.756Z,1.30
2019-02-26T07:03:27.131Z,1.20
2019-02-26T07:06:01.623Z,1.30
2019-02-26T07:08:31.040Z,1.40
2019-02-26T07:11:03.639Z,1.50
2019-02-26T07:13:33.947Z,1.60
2019-02-26T07:16:05.351Z,1.70
2019-02-26T07:18:35.609Z,1.80
2019-02-26T07:21:05.896Z,1.90
2019-02-26T07:23:38.202Z,1.90
2019-02-26T07:26:08.135Z,2.00
2019-02-26T07:28:39.678Z,2.10
2019-02-26T07:31:12.135Z,2.20
2019-02-26T07:33:42.597Z,2.30
2019-02-26T07:36:12.885Z,2.40
2019-02-26T07:38:46.054Z,2.40
2019-02-26T07:41:15.164Z,2.50
2019-02-26T07:43:46.865Z,2.60
2019-02-26T07:46:19.207Z,2.80
2019-02-26T07:48:53.652Z,2.90
2019-02-26T07:51:21.246Z,3.10
2019-02-26T07:53:53.498Z,3.20
2019-02-26T07:56:25.541Z,3.30
2019-02-26T07:58:59.016Z,3.40
2019-02-26T08:01:27.338Z,3.50
2019-02-26T08:03:57.529Z,3.60
2019-02-26T08:06:29.392Z,3.70
2019-02-26T08:08:59.826Z,3.80
2019-02-26T08:11:30.094Z,3.90
2019-02-26T08:14:01.565Z,3.90
2019-02-26T08:16:31.945Z,4.20
2019-02-26T08:19:02.212Z,4.40
2019-02-26T08:21:32.467Z,4.50
2019-02-26T08:24:02.763Z,4.70
2019-02-26T08:26:33.078Z,4.80
2019-02-26T08:29:05.123Z,4.90
2019-02-26T08:31:35.242Z,4.90
2019-02-26T08:34:05.551Z,5.10
2019-02-26T08:36:35.919Z,5.20
2019-02-26T08:39:08.255Z,5.30
2019-02-26T08:41:38.520Z,5.30
2019-02-26T08:44:08.809Z,5.30
2019-02-26T08:46:39.872Z,5.40
2019-02-26T08:49:11.612Z,5.50
2019-02-26T08:51:42.936Z,5.70
2019-02-26T08:54:20.633Z,5.80
2019-02-26T08:56:44.976Z,5.90
2019-02-26T08:59:17.293Z,6.00
2019-02-26T09:01:47.188Z,6.10
2019-02-26T09:04:19.305Z,6.20
2019-02-26T09:06:50.576Z,6.10
2019-02-26T09:09:22.960Z,6.00
2019-02-26T09:11:55.238Z,6.00
2019-02-26T09:14:25.327Z,6.00
2019-02-26T09:16:57.070Z,5.90
2019-02-26T09:19:30.105Z,6.00
2019-02-26T09:21:59.597Z,6.10
2019-02-26T09:24:29.818Z,6.40
2019-02-26T09:27:02.328Z,6.40
2019-02-26T09:29:34.135Z,6.50
2019-02-26T09:32:06.646Z,6.70
2019-02-26T09:34:37.823Z,6.80
2019-02-26T09:37:08.115Z,6.90
2019-02-26T09:39:39.092Z,7.10
2019-02-26T09:42:09.513Z,7.30
2019-02-26T09:44:39.774Z,7.50
2019-02-26T09:47:10.063Z,7.60
2019-02-26T09:49:40.355Z,7.70
2019-02-26T09:52:10.475Z,7.90
2019-02-26T09:54:42.911Z,8.00
2019-02-26T09:57:15.512Z,8.20
2019-02-26T09:59:44.791Z,8.30
2019-02-26T10:02:17.191Z,8.40
2019-02-26T10:04:47.812Z,8.50
2019-02-26T10:07:18.856Z,8.60
2019-02-26T10:09:49.053Z,8.80
2019-02-26T10:12:19.431Z,8.90
2019-02-26T10:14:50.649Z,9.00
2019-02-26T10:17:21.712Z,9.20
2019-02-26T10:19:51.925Z,9.30
2019-02-26T10:22:22.217Z,9.50
2019-02-26T10:24:52.425Z,9.60
2019-02-26T10:27:22.722Z,9.80
2019-02-26T10:29:52.977Z,10.00
2019-02-26T10:32:24.296Z,10.10
2019-02-26T10:34:55.091Z,10.30
2019-02-26T10:37:25.358Z,10.50
2019-02-26T10:39:55.608Z,10.70
2019-02-26T10:42:25.789Z,10.90
2019-02-26T10:44:56.498Z,11.10
2019-02-26T10:47:27.442Z,11.40
2019-02-26T10:49:58.779Z,11.50
2019-02-26T10:52:28.978Z,11.80
2019-02-26T10:54:59.254Z,12.00
2019-02-26T10:57:31.084Z,12.30
2019-02-26T11:00:02.598Z,12.50
2019-02-26T11:02:33.676Z,12.70
2019-02-26T11:05:04.303Z,13.00
2019-02-26T11:07:37.520Z,13.20
2019-02-26T11:10:07.032Z,13.50
2019-02-26T11:12:37.231Z,13.80
2019-02-26T11:15:09.266Z,14.00
2019-02-26T11:17:39.630Z,14.30
2019-02-26T11:20:10.337Z,14.50
2019-02-26T11:22:42.346Z,14.80
2019-02-26T11:25:13.375Z,15.10
2019-02-26T11:27:45.997Z,15.20
2019-02-26T11:30:20.499Z,15.40
2019-02-26T11:32:49.856Z,15.60
2019-02-26T11:35:22.029Z,15.90
2019-02-26T11:37:53.142Z,16.20
2019-02-26T11:40:25.271Z,16.50
2019-02-26T11:42:56.171Z,16.70
2019-02-26T11:45:26.398Z,17.00
2019-02-26T11:47:57.999Z,17.10
2019-02-26T11:50:28.611Z,17.30
2019-02-26T11:52:59.186Z,17.50
2019-02-26T11:55:32.006Z,17.60
2019-02-26T11:58:05.638Z,17.90
2019-02-26T12:00:52.486Z,18.20
2019-02-26T12:03:25.026Z,18.40
2019-02-26T12:05:56.645Z,18.70
2019-02-26T12:08:26.722Z,19.00
2019-02-26T12:11:01.051Z,19.30
2019-02-26T12:13:29.010Z,19.50
2019-02-26T12:15:59.302Z,19.80
2019-02-26T12:18:29.564Z,20.10
2019-02-26T12:21:00.210Z,20.30
2019-02-26T12:23:31.670Z,20.60
2019-02-26T12:26:03.782Z,20.90
2019-02-26T12:28:35.917Z,21.10
2019-02-26T12:31:08.076Z,21.40
2019-02-26T12:33:37.853Z,21.50
2019-02-26T12:36:09.811Z,21.80
2019-02-26T12:38:39.982Z,22.00
2019-02-26T12:41:12.302Z,22.30
2019-02-26T12:43:45.826Z,22.60
2019-02-26T12:46:14.129Z,23.00
2019-02-26T12:48:46.861Z,23.40
2019-02-26T12:51:16.326Z,23.70
2019-02-26T12:53:49.859Z,24.00
2019-02-26T12:56:20.674Z,24.50
2019-02-26T12:58:53.938Z,24.90
2019-02-26T13:01:22.806Z,25.40
2019-02-26T13:03:54.989Z,25.90
2019-02-26T13:06:25.001Z,26.30
2019-02-26T13:08:55.192Z,26.80
2019-02-26T13:11:25.543Z,27.40
2019-02-26T13:13:55.812Z,28.10
2019-02-26T13:16:26.115Z,28.70
2019-02-26T13:19:00.663Z,29.00
2019-02-26T13:21:28.238Z,29.30
2019-02-26T13:24:03.600Z,29.70
2019-02-26T13:26:36.054Z,30.00
2019-02-26T13:29:02.577Z,30.40
2019-02-26T13:31:36.022Z,30.60
2019-02-26T13:34:04.773Z,30.70
2019-02-26T13:36:36.902Z,30.90
2019-02-26T13:39:08.009Z,30.70
2019-02-26T13:41:39.034Z,30.80
2019-02-26T13:44:09.738Z,31.00
2019-02-26T13:46:39.895Z,31.20
2019-02-26T13:49:10.087Z,31.50
2019-02-26T13:51:40.391Z,31.90
2019-02-26T13:54:10.701Z,32.50
2019-02-26T13:56:40.934Z,33.20
2019-02-26T13:59:11.457Z,33.80
2019-02-26T14:01:41.803Z,34.20
2019-02-26T14:04:12.156Z,34.40
2019-02-26T14:06:42.457Z,34.50
2019-02-26T14:09:12.777Z,34.20
2019-02-26T14:11:43.054Z,33.50
2019-02-26T14:14:13.269Z,32.90
2019-02-26T14:16:43.852Z,32.30
2019-02-26T14:19:14.144Z,31.70
2019-02-26T14:21:44.527Z,31.10
2019-02-26T14:24:14.725Z,30.50
2019-02-26T14:26:45.075Z,29.80
2019-02-26T14:29:15.448Z,29.20
2019-02-26T14:31:45.637Z,28.70
2019-02-26T14:34:15.856Z,28.20
2019-02-26T14:36:46.335Z,27.80
2019-02-26T14:39:16.724Z,27.30
2019-02-26T14:41:47.058Z,26.80
2019-02-26T14:44:17.392Z,26.30
2019-02-26T14:46:47.686Z,25.80
2019-02-26T14:49:18.423Z,25.30
2019-02-26T14:51:48.662Z,25.00
2019-02-26T14:54:18.873Z,24.70
2019-02-26T14:56:49.172Z,24.50
2019-02-26T14:59:19.796Z,24.30
2019-02-26T15:01:50.096Z,24.00
2019-02-26T15:04:20.348Z,23.80
2019-02-26T15:06:50.710Z,23.60
2019-02-26T15:09:21.063Z,23.30
2019-02-26T15:11:51.604Z,23.10
2019-02-26T15:14:21.934Z,22.90
2019-02-26T15:16:52.316Z,22.60
2019-02-26T15:19:22.515Z,22.50
2019-02-26T15:21:52.800Z,22.20
2019-02-26T15:24:23.110Z,22.10
2019-02-26T15:26:53.531Z,22.00
2019-02-26T15:29:23.675Z,21.90
2019-02-26T15:31:53.884Z,21.70
2019-02-26T15:34:24.061Z,21.60
2019-02-26T15:36:54.447Z,21.40
2019-02-26T15:39:24.617Z,21.30
2019-02-26T15:41:54.846Z,21.10
2019-02-26T15:44:26.180Z,21.00
2019-02-26T15:46:59.622Z,20.90
2019-02-26T15:49:29.178Z,20.70
2019-02-26T15:51:59.441Z,20.60
2019-02-26T15:54:29.758Z,20.50
2019-02-26T15:57:00.591Z,20.40
2019-02-26T15:59:35.258Z,20.30
2019-02-26T16:02:03.294Z,20.20
2019-02-26T16:04:33.533Z,20.10
2019-02-26T16:07:03.846Z,19.90
2019-02-26T16:09:35.706Z,19.90
2019-02-26T16:12:06.155Z,19.70
2019-02-26T16:14:36.581Z,19.60
2019-02-26T16:17:06.996Z,19.50
2019-02-26T16:19:37.349Z,19.40
2019-02-26T16:22:07.630Z,19.30
2019-02-26T16:24:37.892Z,19.20
2019-02-26T16:27:08.109Z,19.10
2019-02-26T16:29:38.397Z,18.90
2019-02-26T16:32:09.169Z,18.80
2019-02-26T16:34:39.576Z,18.70
2019-02-26T16:37:09.803Z,18.50
2019-02-26T16:39:40.385Z,18.40
2019-02-26T16:42:11.747Z,18.20
2019-02-26T16:44:42.629Z,18.10
2019-02-26T16:47:14.643Z,17.90
2019-02-26T16:49:45.043Z,17.70
2019-02-26T16:52:15.273Z,17.50
2019-02-26T16:54:45.563Z,17.30
2019-02-26T16:57:16.012Z,17.10
2019-02-26T16:59:46.331Z,16.90
2019-02-26T17:02:16.941Z,16.80
2019-02-26T17:04:47.143Z,16.60
2019-02-26T17:07:17.402Z,16.30
2019-02-26T17:09:47.799Z,16.10
2019-02-26T17:12:18.051Z,15.90
2019-02-26T17:14:50.407Z,15.70
2019-02-26T17:17:20.484Z,15.60
2019-02-26T17:19:50.795Z,15.50
2019-02-26T17:22:21.125Z,15.20
2019-02-26T17:24:53.375Z,14.90
2019-02-26T17:27:23.459Z,14.70
2019-02-26T17:29:53.692Z,14.40
2019-02-26T17:32:23.914Z,14.20
2019-02-26T17:34:55.741Z,14.10
2019-02-26T17:37:26.134Z,14.00
2019-02-26T17:39:56.508Z,13.90
2019-02-26T17:42:26.807Z,13.70
2019-02-26T17:44:57.176Z,13.50
2019-02-26T17:47:27.460Z,13.30
2019-02-26T17:49:57.756Z,13.20
2019-02-26T17:52:28.050Z,13.10
2019-02-26T17:54:58.383Z,13.00
2019-02-26T17:57:28.668Z,12.80
2019-02-26T17:59:59.038Z,12.80
2019-02-26T18:02:29.355Z,12.60
2019-02-26T18:05:00.778Z,12.40
2019-02-26T18:07:31.880Z,12.30
2019-02-26T18:10:02.296Z,12.10
2019-02-26T18:12:32.672Z,11.90
2019-02-26T18:15:03.032Z,11.70
2019-02-26T18:17:33.234Z,11.60
2019-02-26T18:20:03.704Z,11.40
2019-02-26T18:22:34.094Z,11.20
2019-02-26T18:25:04.458Z,11.00
2019-02-26T18:27:34.827Z,10.90
2019-02-26T18:30:05.837Z,10.80
2019-02-26T18:32:36.143Z,10.80
2019-02-26T18:35:06.405Z,10.80
2019-02-26T18:37:36.646Z,10.70
2019-02-26T18:40:07.587Z,10.60
2019-02-26T18:42:41.018Z,10.50
2019-02-26T18:45:13.171Z,10.40
2019-02-26T18:47:43.530Z,10.30
2019-02-26T18:50:13.751Z,10.20
2019-02-26T18:52:44.010Z,10.10
2019-02-26T18:55:15.280Z,10.10
2019-02-26T18:57:45.499Z,10.00
2019-02-26T19:00:25.583Z,9.90
2019-02-26T19:02:53.187Z,9.70
2019-02-26T19:05:23.761Z,9.70
2019-02-26T19:07:54.267Z,9.60
2019-02-26T19:10:24.637Z,9.60
2019-02-26T19:12:54.999Z,9.60
2019-02-26T19:15:25.440Z,9.50
2019-02-26T19:17:57.061Z,9.50
2019-02-26T19:20:28.519Z,9.40
2019-02-26T19:22:59.571Z,9.40
2019-02-26T19:25:30.073Z,9.30
2019-02-26T19:28:00.473Z,9.30
2019-02-26T19:30:30.852Z,9.20
2019-02-26T19:33:01.096Z,9.10
2019-02-26T19:35:34.828Z,9.10
2019-02-26T19:38:03.398Z,9.10
2019-02-26T19:40:38.782Z,9.00
2019-02-26T19:43:08.468Z,8.90
2019-02-26T19:45:38.734Z,8.80
2019-02-26T19:48:08.997Z,8.70
2019-02-26T19:50:39.295Z,8.60
2019-02-26T19:53:10.776Z,8.50
2019-02-26T19:55:41.335Z,8.40
2019-02-26T19:58:11.532Z,8.30
2019-02-26T20:00:41.835Z,8.20
2019-02-26T20:03:12.123Z,8.10
2019-02-26T20:05:45.943Z,8.00
2019-02-26T20:08:14.442Z,7.90
2019-02-26T20:10:47.837Z,7.80
2019-02-26T20:13:16.639Z,7.80
2019-02-26T20:15:46.935Z,7.70
2019-02-26T20:18:21.180Z,7.70
2019-02-26T20:20:52.033Z,7.60
2019-02-26T20:23:22.387Z,7.50
2019-02-26T20:25:52.568Z,7.50
2019-02-26T20:28:22.957Z,7.40
2019-02-26T20:30:53.155Z,7.30
2019-02-26T20:33:23.468Z,7.20
2019-02-26T20:35:53.630Z,7.10
2019-02-26T20:38:23.952Z,7.00
2019-02-26T20:40:54.142Z,7.00
2019-02-26T20:43:24.403Z,7.00
2019-02-26T20:45:54.694Z,6.90
2019-02-26T20:48:25.033Z,6.90
2019-02-26T20:50:56.545Z,6.90
2019-02-26T20:53:27.041Z,6.90
2019-02-26T20:55:58.192Z,6.90
2019-02-26T20:58:28.534Z,6.80
2019-02-26T21:00:59.359Z,6.80
2019-02-26T21:03:29.735Z,6.80
2019-02-26T21:05:59.995Z,6.80
2019-02-26T21:08:31.024Z,6.80
2019-02-26T21:11:01.909Z,6.70
2019-02-26T21:13:34.657Z,6.70
2019-02-26T21:16:04.142Z,6.60
2019-02-26T21:18:34.351Z,6.50
2019-02-26T21:21:04.603Z,6.40
2019-02-26T21:23:34.951Z,6.30
2019-02-26T21:26:05.296Z,6.20
2019-02-26T21:28:35.593Z,6.20
2019-02-26T21:31:05.939Z,6.20
2019-02-26T21:33:36.282Z,6.10
2019-02-26T21:36:06.592Z,6.20
2019-02-26T21:38:38.778Z,6.20
2019-02-26T21:41:08.837Z,6.20
2019-02-26T21:43:39.215Z,6.20
2019-02-26T21:46:09.638Z,6.10
2019-02-26T21:48:39.937Z,6.10
2019-02-26T21:51:10.236Z,6.10
2019-02-26T21:53:40.446Z,6.20
2019-02-26T21:56:10.703Z,6.20
2019-02-26T21:58:40.869Z,6.20
2019-02-26T22:01:11.752Z,6.30
2019-02-26T22:03:42.645Z,6.30
2019-02-26T22:06:12.903Z,6.30
2019-02-26T22:08:43.207Z,6.40
2019-02-26T22:11:15.743Z,6.40
2019-02-26T22:13:45.354Z,6.40
2019-02-26T22:16:17.677Z,6.40
2019-02-26T22:18:47.633Z,6.30
2019-02-26T22:21:19.073Z,6.30
2019-02-26T22:23:49.931Z,6.30
2019-02-26T22:26:20.257Z,6.30
2019-02-26T22:28:50.635Z,6.30
2019-02-26T22:31:20.855Z,6.30
2019-02-26T22:33:51.159Z,6.30
2019-02-26T22:36:21.461Z,6.30
2019-02-26T22:38:51.851Z,6.30
2019-02-26T22:41:22.007Z,6.40
2019-02-26T22:43:52.329Z,6.30
2019-02-26T22:46:22.575Z,6.30
2019-02-26T22:48:52.859Z,6.30
2019-02-26T22:51:23.079Z,6.30
2019-02-26T22:53:53.375Z,6.40
2019-02-26T22:56:24.608Z,6.30
2019-02-26T22:58:55.099Z,6.30
2019-02-26T23:01:38.502Z,6.30
2019-02-26T23:04:08.828Z,6.30
2019-02-26T23:06:39.251Z,6.30
2019-02-26T23:09:11.836Z,6.30
2019-02-26T23:11:42.335Z,6.40
2019-02-26T23:14:12.555Z,6.30
2019-02-26T23:16:43.040Z,6.40
2019-02-26T23:19:13.467Z,6.40
2019-02-26T23:21:44.156Z,6.50
2019-02-26T23:24:15.016Z,6.50
2019-02-26T23:26:45.320Z,6.50
2019-02-26T23:29:15.580Z,6.50
2019-02-26T23:31:46.157Z,6.50
2019-02-26T23:34:16.470Z,6.60
2019-02-26T23:36:46.654Z,6.60
2019-02-26T23:39:17.545Z,6.60
2019-02-26T23:41:47.819Z,6.60
2019-02-26T23:44:18.652Z,6.60
2019-02-26T23:46:48.957Z,6.60
2019-02-26T23:49:19.276Z,6.60
2019-02-26T23:51:50.949Z,6.60
2019-02-26T23:54:21.630Z,6.60
2019-02-26T23:56:52.210Z,6.50
2019-02-26T23:59:22.878Z,6.50
